createdAt,value
2023-01-19T00:02:23.985Z,6.35
2023-01-19T00:05:30.309Z,6.43
2023-01-19T00:08:55.825Z,6.41
2023-01-19T00:12:19.894Z,6.56
2023-01-19T00:15:40.606Z,6.28
2023-01-19T00:19:04.732Z,6.31
2023-01-19T00:22:31.342Z,6.18
2023-01-19T00:25:43.875Z,6.34
2023-01-19T00:29:08.733Z,6.16
2023-01-19T00:32:32.875Z,6.20
2023-01-19T00:36:08.170Z,5.98
2023-01-19T00:39:24.232Z,5.95
2023-01-19T00:42:44.261Z,5.98
2023-01-19T00:45:52.583Z,6.10
2023-01-19T00:48:57.492Z,5.92
2023-01-19T00:52:05.443Z,6.08
2023-01-19T00:55:11.023Z,5.93
2023-01-19T00:58:26.988Z,6.02
2023-01-19T01:01:55.534Z,5.88
2023-01-19T01:05:19.446Z,6.00
2023-01-19T01:09:03.795Z,5.99
2023-01-19T01:12:24.544Z,5.80
2023-01-19T01:15:37.333Z,5.80
2023-01-19T01:18:40.727Z,5.59
2023-01-19T01:21:55.909Z,5.61
2023-01-19T01:25:13.616Z,5.55
2023-01-19T01:28:29.479Z,5.61
2023-01-19T01:31:51.402Z,5.64
2023-01-19T01:35:11.998Z,5.55
2023-01-19T01:38:22.171Z,5.56
2023-01-19T01:41:31.662Z,5.59
2023-01-19T01:44:52.673Z,5.70
2023-01-19T01:48:22.823Z,5.58
2023-01-19T01:52:01.403Z,5.37
2023-01-19T01:55:20.112Z,5.41
2023-01-19T01:58:40.899Z,5.37
2023-01-19T02:02:04.242Z,5.57
2023-01-19T02:05:43.527Z,5.33
2023-01-19T02:09:43.862Z,5.22
2023-01-19T02:13:21.647Z,5.29
2023-01-19T02:16:34.389Z,5.30
2023-01-19T02:19:47.930Z,5.19
2023-01-19T02:23:46.823Z,5.24
2023-01-19T02:27:20.998Z,5.16
2023-01-19T02:30:45.919Z,5.07
2023-01-19T02:33:54.755Z,5.07
2023-01-19T02:37:28.849Z,5.04
2023-01-19T02:40:57.773Z,5.06
2023-01-19T02:44:13.984Z,5.11
2023-01-19T02:47:32.001Z,5.12
2023-01-19T02:50:56.230Z,5.03
2023-01-19T02:54:18.158Z,4.92
2023-01-19T02:57:49.214Z,4.97
2023-01-19T03:01:38.970Z,4.93
2023-01-19T03:05:05.920Z,5.04
2023-01-19T03:08:38.441Z,5.07
2023-01-19T03:11:51.685Z,5.03
2023-01-19T03:15:02.526Z,5.04
2023-01-19T03:18:15.452Z,5.04
2023-01-19T03:21:22.307Z,5.03
2023-01-19T03:24:29.445Z,5.19
2023-01-19T03:27:56.084Z,5.02
2023-01-19T03:31:31.127Z,5.03
2023-01-19T03:34:51.128Z,5.13
2023-01-19T03:38:11.215Z,5.17
2023-01-19T03:41:45.086Z,5.14
2023-01-19T03:45:07.250Z,5.09
2023-01-19T03:48:18.337Z,5.03
2023-01-19T03:51:40.490Z,4.97
2023-01-19T03:54:50.885Z,5.20
2023-01-19T03:58:14.124Z,5.07
2023-01-19T04:01:43.253Z,4.89
2023-01-19T04:05:05.189Z,4.89
2023-01-19T04:08:34.044Z,4.95
2023-01-19T04:11:58.045Z,4.88
2023-01-19T04:15:19.059Z,4.89
2023-01-19T04:18:42.153Z,4.92
2023-01-19T04:22:04.284Z,5.03
2023-01-19T04:25:25.950Z,4.92
2023-01-19T04:28:45.220Z,4.52
2023-01-19T04:32:10.310Z,4.60
2023-01-19T04:35:14.439Z,4.60
2023-01-19T04:38:18.236Z,4.56
2023-01-19T04:41:27.158Z,4.46
2023-01-19T04:44:43.432Z,4.48
2023-01-19T04:48:05.947Z,4.38
2023-01-19T04:51:19.489Z,4.49
2023-01-19T04:54:23.111Z,4.59
2023-01-19T04:57:33.433Z,4.46
2023-01-19T05:00:40.163Z,4.41
2023-01-19T05:04:01.193Z,4.39
2023-01-19T05:07:14.322Z,4.59
2023-01-19T05:10:20.314Z,4.59
2023-01-19T05:13:33.840Z,4.61
2023-01-19T05:16:51.959Z,4.52
2023-01-19T05:20:03.989Z,4.57
2023-01-19T05:23:28.543Z,4.55
2023-01-19T05:26:55.612Z,4.70
2023-01-19T05:30:11.540Z,4.68
2023-01-19T05:33:35.780Z,4.62
2023-01-19T05:37:06.682Z,4.64
2023-01-19T05:40:23.611Z,4.80
2023-01-19T05:43:35.599Z,4.74
2023-01-19T05:46:58.869Z,4.81
2023-01-19T05:50:05.408Z,4.89
2023-01-19T05:53:23.991Z,4.88
2023-01-19T05:56:37.282Z,5.07
2023-01-19T05:59:41.886Z,4.74
2023-01-19T06:02:53.838Z,4.62
2023-01-19T06:06:01.532Z,4.59
2023-01-19T06:09:10.790Z,4.43
2023-01-19T06:12:27.766Z,4.56
2023-01-19T06:15:44.708Z,4.57
2023-01-19T06:19:01.552Z,4.54
2023-01-19T06:22:24.690Z,4.55
2023-01-19T06:26:01.755Z,4.42
2023-01-19T06:29:18.670Z,4.52
2023-01-19T06:32:34.935Z,4.61
2023-01-19T06:36:00.787Z,4.43
2023-01-19T06:39:14.612Z,4.46
2023-01-19T06:42:23.912Z,4.50
2023-01-19T06:45:34.405Z,4.70
2023-01-19T06:48:49.650Z,4.82
2023-01-19T06:52:13.727Z,4.83
2023-01-19T06:55:36.632Z,4.90
2023-01-19T06:58:55.345Z,4.86
2023-01-19T07:07:18.807Z,4.76
2023-01-19T07:11:26.101Z,4.81
2023-01-19T07:14:24.397Z,4.77
2023-01-19T07:17:35.252Z,4.90
2023-01-19T07:20:42.060Z,4.92
2023-01-19T07:24:00.475Z,4.83
2023-01-19T07:27:34.467Z,4.78
2023-01-19T07:30:59.753Z,4.77
2023-01-19T07:34:27.799Z,4.89
2023-01-19T07:37:36.140Z,5.19
2023-01-19T07:41:03.811Z,5.28
2023-01-19T07:44:36.426Z,5.35
2023-01-19T07:47:40.612Z,5.30
2023-01-19T07:57:01.631Z,5.32
2023-01-19T08:00:19.007Z,5.31
2023-01-19T08:03:28.685Z,5.21
2023-01-19T08:06:39.500Z,5.21
2023-01-19T08:09:44.716Z,5.43
2023-01-19T08:13:31.952Z,5.34
2023-01-19T08:16:36.746Z,5.16
2023-01-19T08:19:53.452Z,5.16
2023-01-19T08:23:05.712Z,5.22
2023-01-19T08:26:25.134Z,5.26
2023-01-19T08:29:34.045Z,5.22
2023-01-19T08:32:39.008Z,5.30
2023-01-19T08:35:55.813Z,5.32
2023-01-19T08:43:41.059Z,5.48
2023-01-19T08:53:12.960Z,5.58
2023-01-19T09:02:17.541Z,5.39
2023-01-19T09:05:51.343Z,5.41
2023-01-19T09:10:04.505Z,5.47
2023-01-19T09:13:49.518Z,5.02
2023-01-19T09:21:59.374Z,5.29
2023-01-19T09:25:28.525Z,5.29
2023-01-19T09:28:49.615Z,5.28
2023-01-19T09:32:25.913Z,5.23
2023-01-19T09:36:27.431Z,5.36
2023-01-19T09:41:08.901Z,5.19
2023-01-19T09:45:42.384Z,5.10
2023-01-19T09:49:35.219Z,5.17
2023-01-19T09:53:21.477Z,4.97
2023-01-19T10:02:19.528Z,4.75
2023-01-19T10:06:07.676Z,4.67
2023-01-19T10:14:41.971Z,4.80
2023-01-19T10:28:46.174Z,4.46
2023-01-19T10:52:03.566Z,4.33
2023-01-19T10:55:23.904Z,4.48
2023-01-19T10:58:31.304Z,4.46
2023-01-19T11:02:42.384Z,4.20
2023-01-19T11:10:23.519Z,4.29
2023-01-19T11:19:27.849Z,4.16
2023-01-19T11:23:29.012Z,4.00
2023-01-19T11:27:26.045Z,3.61
2023-01-19T11:31:14.703Z,3.76
2023-01-19T11:34:33.498Z,3.95
2023-01-19T11:38:03.817Z,3.91
2023-01-19T11:41:20.759Z,3.88
2023-01-19T11:44:40.130Z,3.78
2023-01-19T11:48:17.581Z,4.03
2023-01-19T11:51:36.830Z,3.99
2023-01-19T11:55:38.046Z,3.88
2023-01-19T11:59:01.282Z,3.88
2023-01-19T12:02:58.456Z,4.23
2023-01-19T12:07:01.791Z,4.17
2023-01-19T12:10:22.697Z,4.36
2023-01-19T12:20:02.350Z,4.14
2023-01-19T12:23:12.025Z,4.29
2023-01-19T12:26:43.054Z,4.30
2023-01-19T12:30:04.385Z,4.12
2023-01-19T12:33:26.398Z,4.13
2023-01-19T12:36:45.857Z,3.93
2023-01-19T12:40:34.885Z,4.13
2023-01-19T12:43:40.841Z,4.13
2023-01-19T12:47:06.742Z,4.07
2023-01-19T12:50:46.374Z,4.04
2023-01-19T12:54:35.015Z,4.33
2023-01-19T13:07:19.838Z,4.29
2023-01-19T13:10:59.945Z,4.18
2023-01-19T13:14:03.689Z,4.27
2023-01-19T13:27:38.772Z,4.43
2023-01-19T13:31:04.763Z,4.37
2023-01-19T13:34:15.230Z,4.44
2023-01-19T13:38:01.910Z,4.47
2023-01-19T13:41:05.203Z,4.54
2023-01-19T13:44:29.471Z,4.33
2023-01-19T13:47:44.555Z,4.16
2023-01-19T13:56:33.968Z,4.27
2023-01-19T14:04:33.141Z,4.11
2023-01-19T14:08:18.809Z,4.05
2023-01-19T14:11:25.012Z,4.05
2023-01-19T14:25:39.950Z,3.53
2023-01-19T14:28:51.288Z,3.70
2023-01-19T14:32:00.961Z,3.60
2023-01-19T14:35:05.095Z,3.51
2023-01-19T14:38:14.597Z,3.48
2023-01-19T14:41:30.863Z,3.87
2023-01-19T14:44:52.433Z,3.59
2023-01-19T14:48:17.886Z,3.39
2023-01-19T14:51:37.549Z,3.63
2023-01-19T14:54:54.521Z,3.83
2023-01-19T14:58:33.890Z,3.58
2023-01-19T15:01:44.638Z,3.42
2023-01-19T15:05:10.739Z,3.62
2023-01-19T15:08:29.472Z,3.70
2023-01-19T15:11:45.284Z,3.62
2023-01-19T15:15:02.767Z,3.90
2023-01-19T15:18:15.696Z,3.85
2023-01-19T15:21:23.857Z,3.88
2023-01-19T15:24:37.024Z,3.84
2023-01-19T15:27:58.918Z,3.96
2023-01-19T15:31:16.255Z,3.79
2023-01-19T15:34:32.296Z,3.79
2023-01-19T15:37:53.136Z,3.65
2023-01-19T15:41:18.972Z,3.66
2023-01-19T15:44:42.130Z,3.50
2023-01-19T15:48:09.132Z,3.62
2023-01-19T15:51:37.142Z,3.48
2023-01-19T15:54:57.161Z,3.48
2023-01-19T15:58:13.898Z,3.44
2023-01-19T16:01:40.271Z,3.45
2023-01-19T16:05:01.842Z,3.56
2023-01-19T16:08:18.844Z,3.63
2023-01-19T16:11:42.080Z,3.32
2023-01-19T16:15:03.159Z,3.36
2023-01-19T16:18:28.292Z,3.48
2023-01-19T16:21:54.960Z,3.72
2023-01-19T16:25:16.931Z,3.70
2023-01-19T16:28:34.194Z,3.63
2023-01-19T16:31:54.110Z,3.57
2023-01-19T16:35:17.466Z,3.63
2023-01-19T16:38:33.042Z,3.45
2023-01-19T16:42:08.004Z,3.45
2023-01-19T16:45:32.200Z,3.59
2023-01-19T16:48:54.113Z,3.58
2023-01-19T16:52:17.079Z,3.61
2023-01-19T16:55:38.313Z,3.48
2023-01-19T16:58:42.206Z,3.45
2023-01-19T17:01:46.618Z,3.37
2023-01-19T17:05:00.795Z,3.43
2023-01-19T17:08:03.827Z,3.35
2023-01-19T17:11:13.311Z,3.39
2023-01-19T17:14:20.582Z,3.51
2023-01-19T17:17:32.972Z,3.50
2023-01-19T17:20:49.118Z,3.42
2023-01-19T17:24:08.914Z,3.58
2023-01-19T17:28:51.537Z,3.49
2023-01-19T17:31:58.948Z,3.48
2023-01-19T17:35:20.540Z,3.79
2023-01-19T17:38:41.579Z,3.73
2023-01-19T17:41:51.708Z,3.78
2023-01-19T17:45:09.269Z,3.21
2023-01-19T17:48:26.015Z,3.11
2023-01-19T17:51:48.808Z,3.50
2023-01-19T17:55:11.542Z,3.45
2023-01-19T17:58:15.710Z,3.45
2023-01-19T18:01:28.619Z,3.32
2023-01-19T18:04:39.842Z,3.60
2023-01-19T18:07:43.318Z,3.63
2023-01-19T18:10:57.701Z,3.33
2023-01-19T18:14:11.777Z,3.64
2023-01-19T18:17:29.722Z,3.23
2023-01-19T18:20:50.705Z,3.21
2023-01-19T18:24:00.193Z,2.97
2023-01-19T18:27:24.715Z,3.24
2023-01-19T18:30:57.714Z,2.97
2023-01-19T18:34:14.893Z,2.91
2023-01-19T18:37:33.457Z,3.09
2023-01-19T18:40:56.690Z,3.36
2023-01-19T18:44:27.750Z,3.25
2023-01-19T18:47:50.795Z,3.15
2023-01-19T18:51:13.735Z,3.14
2023-01-19T18:54:30.976Z,3.08
2023-01-19T18:57:48.591Z,2.90
2023-01-19T19:01:13.797Z,2.96
2023-01-19T19:04:42.695Z,3.12
2023-01-19T19:08:03.713Z,3.13
2023-01-19T19:11:23.931Z,3.34
2023-01-19T19:14:40.867Z,3.46
2023-01-19T19:17:59.756Z,3.76
2023-01-19T19:21:07.575Z,3.43
2023-01-19T19:24:13.520Z,2.90
2023-01-19T19:27:24.225Z,3.14
2023-01-19T19:30:47.560Z,3.07
2023-01-19T19:34:09.491Z,3.04
2023-01-19T19:37:29.541Z,3.02
2023-01-19T19:41:00.167Z,2.99
2023-01-19T19:44:21.215Z,3.25
2023-01-19T19:47:44.571Z,3.10
2023-01-19T19:51:17.604Z,2.77
2023-01-19T19:54:32.340Z,2.82
2023-01-19T19:57:36.203Z,3.05
2023-01-19T20:00:40.200Z,3.03
2023-01-19T20:03:56.427Z,3.15
2023-01-19T20:07:07.967Z,2.99
2023-01-19T20:10:11.577Z,3.25
2023-01-19T20:13:19.305Z,2.82
2023-01-19T20:16:26.735Z,2.76
2023-01-19T20:19:45.767Z,2.65
2023-01-19T20:22:56.095Z,2.76
2023-01-19T20:26:05.107Z,2.54
2023-01-19T20:29:10.412Z,2.80
2023-01-19T20:32:26.769Z,2.81
2023-01-19T20:35:43.357Z,2.55
2023-01-19T20:38:50.837Z,2.80
2023-01-19T20:41:54.850Z,2.68
2023-01-19T20:45:09.574Z,2.87
2023-01-19T20:48:28.239Z,2.92
2023-01-19T20:51:51.502Z,2.79
2023-01-19T20:54:54.768Z,2.63
2023-01-19T20:58:02.681Z,2.58
2023-01-19T21:01:24.939Z,2.73
2023-01-19T21:04:30.545Z,2.72
2023-01-19T21:07:46.710Z,2.51
2023-01-19T21:11:03.477Z,2.75
2023-01-19T21:14:30.349Z,2.62
2023-01-19T21:17:46.762Z,2.84
2023-01-19T21:21:28.489Z,2.86
2023-01-19T21:24:40.005Z,2.19
2023-01-19T21:27:50.946Z,2.57
2023-01-19T21:31:14.485Z,2.63
2023-01-19T21:34:43.189Z,2.47
2023-01-19T21:38:07.269Z,2.58
2023-01-19T21:41:16.769Z,2.54
2023-01-19T21:44:26.594Z,2.59
2023-01-19T21:47:36.532Z,2.38
2023-01-19T21:50:43.376Z,2.90
2023-01-19T21:54:02.857Z,2.79
2023-01-19T21:57:06.442Z,3.11
2023-01-19T22:00:11.126Z,2.92
2023-01-19T22:03:32.081Z,3.15
2023-01-19T22:06:49.214Z,2.83
2023-01-19T22:09:58.921Z,2.57
2023-01-19T22:13:02.196Z,2.85
2023-01-19T22:16:18.680Z,2.88
2023-01-19T22:19:35.120Z,2.81
2023-01-19T22:22:41.601Z,2.86
2023-01-19T22:25:45.580Z,2.86
2023-01-19T22:28:53.491Z,2.89
2023-01-19T22:32:09.045Z,2.67
2023-01-19T22:35:35.084Z,2.90
2023-01-19T22:38:51.948Z,2.90
2023-01-19T22:42:14.987Z,2.91
2023-01-19T22:45:42.099Z,2.75
2023-01-19T22:49:06.963Z,2.82
2023-01-19T22:52:28.040Z,2.61
2023-01-19T22:55:48.961Z,2.88
2023-01-19T22:59:11.959Z,2.80
2023-01-19T23:02:28.147Z,2.94
2023-01-19T23:05:49.028Z,2.82
2023-01-19T23:09:19.168Z,2.52
2023-01-19T23:12:39.024Z,2.70
2023-01-19T23:16:02.207Z,2.87
2023-01-19T23:19:20.054Z,2.81
2023-01-19T23:22:30.889Z,2.53
2023-01-19T23:25:38.126Z,2.62
2023-01-19T23:28:44.167Z,2.70
2023-01-19T23:32:01.005Z,2.89
2023-01-19T23:35:11.876Z,2.77
2023-01-19T23:38:28.181Z,2.77
2023-01-19T23:41:44.857Z,2.31
2023-01-19T23:44:48.502Z,2.73
2023-01-19T23:47:55.400Z,2.77
2023-01-19T23:51:17.159Z,2.54
2023-01-19T23:54:36.929Z,2.73
2023-01-19T23:57:43.969Z,2.83
